4th Annual Squamish Triathlon
             Results by RACE HEADQUARTERS - Darcy Locke 552-0799
                                                          Sunday July 22, 2001


       FINAL OVERALL Results

 FINAL Place     Place/TOTAL    FINAL  BIB  NAME of               SWIM 1.5Km BIKE 40 Km  Mi. End of BIKE  RUN  10 Km  PACE
 PLACE in SEX    in DIVISION    TIME   NO. COMPETITOR             Rank Split Rank Split /Hr. Place  TIME  Rank Split /Mile CITY

    1   1/208 M  1/50 M3034  1:58:00  163 Darren Mealing            6 20:35    4 1:01:14 24.4    3 1:21:49    4 36:11  5:49 ,BC             
    2   2/208 M  2/50 M3034  1:59:00   48 Paul Cross                5 20:28    6 1:01:20 24.3    2 1:21:48    7 37:12  5:59 Vancouver,BC    
    3   3/208 M  1/12 M2024  2:00:37  233 Greg Stubbs               1 18:38   15 1:02:57 23.7    1 1:21:35   13 39:02  6:17 Victoria,BC     
    4   4/208 M  3/50 M3034  2:01:13   29 Alan Carlsson             3 20:22    8 1:01:29 24.3    5 1:21:51   14 39:22  6:20 North Vancouver,
    5   5/208 M  2/12 M2024  2:01:42  309 Byron Wood               20 22:20   37 1:04:55 23.0   19 1:27:15    1 34:27  5:33 Vancouver,BC    
    6   6/208 M  1/42 M3539  2:02:00  342 Gordon Addison           18 22:14   13 1:02:38 23.8    8 1:24:52    6 37:08  5:59 Squamish,BC     
    7   7/208 M  4/50 M3034  2:02:06  207 Kharim Schliewinsky      13 21:00   19 1:03:18 23.6    6 1:24:18    9 37:48  6:05 Victoria,BC     
    8   8/208 M  2/42 M3539  2:02:56  151 Matthias Jakob           62 24:15    9 1:01:40 24.2   13 1:25:55    5 37:01  5:57 Vancouver,BC    
    9   1/32  R  1/14 R-Mix  2:03:03  378  Eagle Run Coffee Comp   21 22:28   10 1:02:19 23.9    7 1:24:47   10 38:16  6:10 Garibaldi Hlnds,
   10   9/208 M  5/50 M3034  2:04:51   41 Tim Cole                  4 20:25    7 1:01:25 24.3    4 1:21:50   67 43:01  6:55 Kamloops,BC     
   11  10/208 M  6/50 M3034  2:05:52  311 Craig McGarry            34 23:02   11 1:02:26 23.9    9 1:25:28   22 40:24  6:30 North Vancouver,
   12   2/32  R  2/14 R-Mix  2:05:56  365  Team Harmell            64 24:17   48 1:05:51 22.6   49 1:30:08    3 35:48  5:46 Edmonton,AB     
   13   1/117 F  1/20 F2529  2:06:26  161 Melanie McQuaid          14 21:09                                                 Victoria,BC     
   14  11/208 M  1/25 M2529  2:06:43  216 Jonathon Silcock         76 24:44    1 1:00:48 24.5   10 1:25:32   34 41:11  6:38 North Vancouver,
   15  12/208 M  7/50 M3034  2:06:52  284 Kendall Dickinson        49 23:46   17 1:03:04 23.6   17 1:26:50   18 40:02  6:27 Vancouver,BC    
   16  13/208 M  1/39 M4044  2:07:03  308 Patrick Turner           42 23:15   43 1:05:26 22.8   30 1:28:41   11 38:22  6:10 Vancouver,BC    
   17   3/32  R  1/8  R-Male 2:07:21  352  Cutting Edge Painting   92 25:39    2 1:00:58 24.5   15 1:26:37   27 40:44  6:33 Garibaldi Hlnds,
   18  14/208 M  8/50 M3034  2:08:02  186 Paul Pierobon            36 23:03   26 1:04:22 23.2   20 1:27:25   25 40:37  6:32 Vancouver,BC    
   19  15/208 M  9/50 M3034  2:08:15  313 Garrett MacFadden        66 24:20   83 1:08:18 21.8   72 1:32:38    2 35:37  5:44 Victoria,BC     
   20   2/117 F  1/16 F2024  2:08:40   32 Kristine Chambers        16 21:37   41 1:05:10 22.9   16 1:26:47   44 41:53  6:44 Vancouver,BC    
   21  16/208 M 10/50 M3034  2:08:46  312 Derek Peregrym           41 23:13   27 1:04:24 23.2   23 1:27:37   31 41:09  6:37 Penticton,BC    
   22  17/208 M  2/25 M2529  2:08:48  251 Paul Tylla               73 24:38    3 1:01:12 24.4   12 1:25:50   62 42:58  6:55 Coquitlam,BC    
   23  18/208 M 11/50 M3034  2:08:51  181 Paul Paddon              26 22:52   50 1:06:02 22.6   34 1:28:54   17 39:57  6:26 Vancouver,BC    
   24   3/117 F  1/37 F3034  2:09:24  242 Yvonne Timewell          24 22:42   28 1:04:25 23.2   18 1:27:07   53 42:17  6:48 Port Moody,BC   
   25  19/208 M  3/42 M3539  2:09:28  256 Max Waibler              25 22:46   18 1:03:09 23.6   14 1:25:55   76 43:33  7:01 Vancouver,BC    
   26  20/208 M 12/50 M3034  2:09:37  122 Jamie Kimber             60 24:09   31 1:04:35 23.1   31 1:28:44   29 40:53  6:35 Vancouver,BC    
   27  21/208 M  3/12 M2024  2:09:43   98 Kertis Heidt             88 25:32   25 1:03:59 23.3   44 1:29:31   20 40:12  6:28 New Westminster,
   28  22/208 M  2/39 M4044  2:09:48  213 Mark Shorter             65 24:17   58 1:06:38 22.4   55 1:30:55   12 38:53  6:15 North Vancouver,
   29  23/208 M 13/50 M3034  2:09:54  149 Dave Markham              9 20:46   36 1:04:54 23.0   11 1:25:40   88 44:14  7:07 Vancouver,BC    
   30  24/208 M 14/50 M3034  2:10:08  239 Gray Taylor             154 27:45    5 1:01:14 24.4   35 1:28:59   32 41:09  6:37 North Vancouver,
   31  25/208 M 15/50 M3034  2:10:11  108 David Hyatt              11 20:55   63 1:06:49 22.3   24 1:27:44   55 42:27  6:50 Vancouver,BC    
   32  26/208 M  3/39 M4044  2:10:22  154 Michael McGee           122 26:44   16 1:02:57 23.7   45 1:29:41   26 40:41  6:33 Maple Ridge,BC  
   33  27/208 M  4/42 M3539  2:10:38  221 John Smit                22 22:29   51 1:06:04 22.6   27 1:28:33   48 42:05  6:46 Merritt,BC      
   34  28/208 M  5/42 M3539  2:10:40  199 David Robertson          71 24:31   30 1:04:29 23.1   36 1:29:00   40 41:40  6:42 Burnaby,BC      
   35  29/208 M  1/17 M4549  2:10:49    1 Jim Aberdeen             51 23:52   22 1:03:36 23.4   22 1:27:28   72 43:21  6:59 Surrey,BC       
   36  30/208 M  1/3  M1519  2:10:57  278 Michael Cambridge        69 24:22   32 1:04:41 23.1   37 1:29:03   45 41:54  6:45 Westbank,BC     
   37  31/208 M  4/39 M4044  2:11:32   46 Brian Corbett            31 22:58   72 1:07:10 22.2   50 1:30:08   39 41:24  6:40 Penticton,BC    
   38  32/208 M  5/39 M4044  2:11:33  227 Andrew Spence            39 23:07   55 1:06:20 22.5   41 1:29:27   49 42:06  6:47 Vancouver,BC    
   39   4/117 F  2/37 F3034  2:11:34  188 Tracey Pope              17 21:58   62 1:06:47 22.3   32 1:28:45   60 42:49  6:53 Pemberton,BC    
   40  33/208 M  6/42 M3539  2:11:48   57 Rob Dibden              124 26:46   14 1:02:43 23.8   43 1:29:29   54 42:19  6:49 Victoria,BC     
   41   5/117 F  1/17 F4044  2:11:59  136 Jill Lawson              27 22:54   73 1:07:19 22.2   52 1:30:13   42 41:46  6:43 North Vancouver,
   42  34/208 M  7/42 M3539  2:12:03  302 John Murdoch             32 22:58   77 1:07:45 22.0   54 1:30:43   37 41:20  6:39 Vancouver,BC    
   43  35/208 M  6/39 M4044  2:12:09  137 Brad Lee                104 26:16   12 1:02:37 23.8   33 1:28:53   71 43:16  6:58 Penticton,BC    
   44   4/32  R  2/8  R-Male 2:12:10  356  Last Minute                                          39 1:29:24   59 42:46  6:53 Vancouver,BC    
   45  36/208 M  3/25 M2529  2:12:25  133 Dan Larche               90 25:37   24 1:03:50 23.4   42 1:29:27   63 42:58  6:55 Victoria,BC     
   46  37/208 M  8/42 M3539  2:12:29  237 Steve Swatton            15 21:25   61 1:06:43 22.4   26 1:28:08   91 44:21  7:08 Vancouver,BC    
   47  38/208 M 16/50 M3034  2:12:55  335 Ken Addison              38 23:06   33 1:04:41 23.1   25 1:27:47   99 45:08  7:16 Coquitlam,BC    
   48   6/117 F  1/14 F3539  2:13:03  195 Michelle Reaume          55 23:55   34 1:04:42 23.0   28 1:28:37   93 44:26  7:09 Coquitlam,BC    
   49  39/208 M  4/12 M2024  2:13:04   97 Dustin Heidt            128 26:55   46 1:05:39 22.7   70 1:32:34   24 40:30  6:31 New Westminster,
   50  40/208 M  7/39 M4044  2:13:21  236 Paul Suter               53 23:54   35 1:04:45 23.0   29 1:28:39   94 44:42  7:12 Whistler,BC     
   51  41/208 M  4/25 M2529  2:13:31  290 Martin Harley            43 23:25   49 1:05:55 22.6   38 1:29:20   86 44:11  7:07 Surrey,BC       
   52  42/208 M  5/12 M2024  2:13:40  316 Peter Solymosi          100 26:04   56 1:06:20 22.5   67 1:32:24   36 41:16  6:38 Vancouver,BC    
   53  43/208 M  6/12 M2024  2:14:25  263 Grant Wilburn            52 23:53   20 1:03:33 23.5   21 1:27:26  124 46:59  7:34 Squamish,BC     
   54  44/208 M  9/42 M3539  2:14:27  265 Dave Wilkins              8 20:42  120 1:10:16 21.2   56 1:30:58   75 43:29  7:00 North Vancouver,
   55  45/208 M  5/25 M2529  2:14:38  205 Derek Sakamoto          115 26:38   21 1:03:35 23.5   53 1:30:13   92 44:25  7:09 Vancouver,BC    
   56  46/208 M  8/39 M4044  2:14:46  152 John McCulloch           29 22:56   71 1:07:02 22.2   48 1:29:58   95 44:48  7:13 Vancouver,BC    
   57  47/208 M  7/12 M2024  2:14:56  142 Timothy Lindsay         169 28:19   93 1:08:55 21.6  117 1:37:14    8 37:42  6:04 West Vancouver,B
   58   7/117 F  2/16 F2024  2:15:07  229 Sarah Stewart           101 26:05   38 1:05:01 22.9   58 1:31:06   82 44:01  7:05 Victoria,BC     
   59  48/208 M 17/50 M3034  2:15:11  285 Chuck Droppo            103 26:11   23 1:03:39 23.4   46 1:29:50  102 45:21  7:18 Vancouver,BC    
   60  49/208 M  6/25 M2529  2:15:22  155 Iain McGregor            28 22:54   88 1:08:28 21.8   60 1:31:22   81 44:00  7:05 Vancouver,BC    
   61  50/208 M  9/39 M4044  2:15:30  333 Mike Rankin              96 25:52   91 1:08:48 21.7   92 1:34:40   28 40:50  6:34 Vancouver,BC    
   62  51/208 M 10/39 M4044  2:15:33  226 Mike Spellacy            82 25:01   29 1:04:25 23.2   40 1:29:26  113 46:07  7:25 Mesa,AZ         
   63  52/208 M 11/39 M4044  2:15:35  185 Ken Pickthall            93 25:43   67 1:06:56 22.3   73 1:32:39   61 42:56  6:55 Burnaby,BC      
   64  53/208 M 12/39 M4044  2:15:38   83 Mark Goozee              94 25:45   65 1:06:54 22.3   74 1:32:39   65 42:59  6:55 North Vancouver,
   65   5/32  R  3/14 R-Mix  2:16:01  374  Franks/Woo/Johnston    199 29:17   60 1:06:41 22.4  108 1:35:58   19 40:03  6:27 Vancouver,BC    
   66  54/208 M 10/42 M3539  2:16:02  210 Alex Seal               132 26:59   64 1:06:49 22.3   80 1:33:48   50 42:14  6:48 Salmon Arm,BC   
   67   8/117 F  3/16 F2024  2:16:15  141 Penny Lidstone           85 25:24   80 1:08:09 21.9   79 1:33:33   58 42:42  6:52 Vancouver,BC    
   68  55/208 M 18/50 M3034  2:16:29  320 Paul Martinson           54 23:54   89 1:08:29 21.8   66 1:32:23   84 44:06  7:06 Vancouver,BC    
   69  56/208 M  7/25 M2529  2:16:55  282 Andrew Czalis           113 26:36   75 1:07:39 22.0   86 1:34:15   56 42:40  6:52 Vancouver,BC    
   70   9/117 F  2/20 F2529  2:16:56   73 Christine Fletcher       68 24:21  131 1:11:12 20.9  100 1:35:33   38 41:23  6:40 Vancouver,BC    
   71  57/208 M 13/39 M4044  2:16:57   59 Joseph Donoghue         118 26:41   52 1:06:11 22.5   75 1:32:52   83 44:05  7:06 Port Moody,BC   
   72  58/208 M 19/50 M3034  2:17:12  147 Ian MacLean              80 24:54   87 1:08:25 21.8   77 1:33:19   79 43:53  7:04 Vancouver,BC    
   73  10/117 F  3/20 F2529  2:17:36   20 Cindy Blochl             84 25:22   98 1:09:08 21.6   88 1:34:30   68 43:06  6:56 Vancouver,BC    
   74  59/208 M 20/50 M3034  2:17:37  124 Steve Knoll             138 27:10   82 1:08:11 21.9   96 1:35:21   52 42:16  6:48 Vancouver,BC    
   75  60/208 M  8/25 M2529  2:17:41  255 Patrick Wadge           149 27:30   39 1:05:04 22.9   71 1:32:34   98 45:07  7:16 Squamish,BC     
   76  61/208 M 21/50 M3034  2:17:43  176 Paul Nichols            130 26:57   97 1:09:06 21.6  110 1:36:03   41 41:40  6:42 Whistler,BC     
   77   6/32  R  4/14 R-Mix  2:17:58  379  Lewis,Hill,DeRusha     224 30:28   44 1:05:26 22.8  106 1:35:54   47 42:04  6:46 Delta,BC        
   78  62/208 M  9/25 M2529  2:18:25   87 Stephan Guerin           77 24:46   42 1:05:11 22.9   47 1:29:57  148 48:28  7:48 Garibaldi Hlnds,
   79  63/208 M 14/39 M4044  2:18:37  262 Doug Wiebe              121 26:43  105 1:09:40 21.4  113 1:36:23   51 42:14  6:48 Belcarra,BC     
   80  11/117 F  4/16 F2024  2:18:38  300 Christine Martindale     12 20:57   99 1:09:12 21.6   51 1:30:09  149 48:29  7:48 Vancouver,BC    
   81  64/208 M 10/25 M2529  2:18:41  179 Trevor Olson             10 20:48  118 1:10:12 21.2   57 1:31:00  132 47:41  7:40 Vancouver,BC    
   82   7/32  R  1/2  R-Corp 2:18:51  375  Marketplace IGA        167 28:15   78 1:07:55 22.0  111 1:36:10   57 42:41  6:52 Squamish,BC     
   83   8/32  R  1/8  R-Fem  2:18:57  363  Sports Divas           206 29:30   57 1:06:27 22.4  107 1:35:57   66 43:00  6:55 Brackendale,BC  
   84  65/208 M 11/25 M2529  2:19:26   89 Roger Hager             125 26:46   95 1:09:04 21.6  104 1:35:50   77 43:36  7:01 Vancouver,BC    
   85  66/208 M 12/25 M2529  2:19:26  340 Francois Fournier       139 27:10   85 1:08:19 21.8   98 1:35:29   80 43:57  7:04 Whistler,BC     
   86  67/208 M 13/25 M2529  2:19:35   85 Jeff Grout              117 26:40   47 1:05:46 22.7   69 1:32:26  129 47:09  7:35 Maple Ridge,BC  
   87  68/208 M 22/50 M3034  2:19:43   84 Stuart Gray             120 26:42   74 1:07:27 22.1   85 1:34:09  105 45:34  7:20 Coquitlam,BC    
   88  69/208 M 23/50 M3034  2:19:55  104 David Higgins             7 20:37  173 1:13:11 20.4   81 1:33:48  114 46:07  7:25 Whistler,BC     
   89  12/117 F  5/16 F2024  2:20:00  198 Jen Rice                 70 24:25   70 1:07:01 22.3   61 1:31:26  153 48:34  7:49 Surrey,BC       
   90  70/208 M 11/42 M3539  2:20:09   33 Peter Chappell           99 25:59  111 1:09:53 21.3  105 1:35:52   89 44:17  7:08 Port Moody,BC   
   91  13/117 F  2/17 F4044  2:20:12  258 Dawn Weberg-Titus        74 24:39   59 1:06:39 22.4   59 1:31:18  163 48:54  7:52 Whistler,BC     
   92  14/117 F  6/16 F2024  2:20:24   72 Tiffany Fenton           78 24:47   66 1:06:55 22.3   63 1:31:42  155 48:42  7:50 Garibaldi Hlnds,
   93  71/208 M 15/39 M4044  2:20:32  127 Brian Kroeker            58 24:04   81 1:08:09 21.9   65 1:32:13  145 48:19  7:47 North Vancouver,
   94  72/208 M 16/39 M4044  2:20:39   95 Daniel Havens           116 26:38  106 1:09:42 21.4  112 1:36:20   90 44:19  7:08 Whistler,BC     
   95  15/117 F  3/37 F3034  2:20:39  235 Christine Suter          50 23:50  107 1:09:42 21.4   78 1:33:32  126 47:07  7:35 Whistler,BC     
   96   9/32  R  3/8  R-Male 2:20:43  364  Strezlow/Chung/Taylor   44 23:38  198 1:15:09 19.8  128 1:38:47   46 41:56  6:45 Vancouver,BC    
   97  73/208 M  2/3  M1519  2:20:45  257 Matthew Ward            158 28:00   68 1:07:00 22.3   93 1:35:00  106 45:45  7:22 Nanaimo,BC      
   98  10/32  R  4/8  R-Male 2:21:01  360  Ronny TomKens          306 35:18   45 1:05:28 22.8  147 1:40:46   21 40:15  6:29 Squamish,BC     
   99  74/208 M 14/25 M2529  2:21:20  145 Sam Lupton              127 26:49   90 1:08:31 21.8   95 1:35:20  110 46:00  7:24 Vancouver,BC    
  100  75/208 M 15/25 M2529  2:21:34  274 J.P. Baron                2 20:00  154 1:12:24 20.6   68 1:32:24  168 49:10  7:55 Vancouver,BC    
  101  16/117 F  2/14 F3539  2:21:34    2 Leslie Achtem            45 23:39  166 1:13:02 20.4  114 1:36:41   96 44:53  7:13 Vancouver,BC    
  102  76/208 M  8/12 M2024  2:21:41  218 Duncan Simmons          111 26:32  100 1:09:12 21.6  103 1:35:44  109 45:57  7:24 New York,NY     
  103  77/208 M 16/25 M2529  2:21:52  113 Kibben Jackson          108 26:26   96 1:09:04 21.6   99 1:35:30  115 46:22  7:28 Vancouver,BC    
  104  17/117 F  7/16 F2024  2:21:54  143 Kelena Lineham           83 25:07  159 1:12:41 20.5  122 1:37:48   85 44:06  7:06 Victoria,BC     
  105  78/208 M  1/9  M5559  2:22:06  183 Brian Parkinson          98 25:57   79 1:08:08 21.9   83 1:34:05  140 48:01  7:44 Langley,BC      
  106  79/208 M 24/50 M3034  2:22:10   81 Steve Gilpin            277 33:16   76 1:07:40 22.0  150 1:40:56   35 41:14  6:38 Vancouver,BC    
  107  80/208 M 12/42 M3539  2:22:16  112 David Jackson           222 30:19  117 1:10:11 21.2  143 1:40:30   43 41:46  6:43 Point Roberts,WA
  108  81/208 M 25/50 M3034  2:22:19  271 Scott Young             225 30:34  149 1:12:10 20.7  182 1:42:44   15 39:35  6:22 Pemberton,BC    
  109  82/208 M 26/50 M3034  2:22:21   31 Paul Casey              126 26:47   92 1:08:51 21.7  102 1:35:38  120 46:43  7:31 Vancouver,BC    
  110  83/208 M 17/25 M2529  2:23:00  307 Dan Schmidt             106 26:23   40 1:05:04 22.9   62 1:31:27  214 51:33  8:18 Surrey,BC       
  111  84/208 M  2/17 M4549  2:23:25  200 Duncan Robinson          81 24:58  103 1:09:34 21.4   89 1:34:32  162 48:53  7:52 Surrey,BC       
  112  18/117 F  1/1  F1519  2:23:57  225 Kerry Spearing           72 24:36  128 1:11:01 21.0  101 1:35:37  146 48:20  7:47 Victoria,BC     
  113  19/117 F  8/16 F2024  2:24:11  166 Melahnie Moodie          67 24:20  119 1:10:14 21.2   90 1:34:34  174 49:37  7:59 Brackendale,BC  
  114  20/117 F  4/37 F3034  2:24:11  338 Kim McMullen            193 29:05  144 1:11:56 20.7  154 1:41:01   70 43:10  6:57 Squamish,BC     
  115  21/117 F  4/20 F2529  2:24:20  268 Imelda Wong              33 22:58  134 1:11:26 20.9   87 1:34:24  178 49:56  8:02 Vancouver,BC    
  116  85/208 M 18/25 M2529  2:24:32   47 Brian Cropp             133 27:00   69 1:07:00 22.3   82 1:34:00  195 50:32  8:08 Coquitlam,BC    
  117  86/208 M  3/17 M4549  2:24:43    3 Ken Adams               286 33:42  124 1:10:34 21.1  194 1:44:16   23 40:27  6:31 Garibaldi Hlnds,
  118  11/32  R  5/14 R-Mix  2:24:58  382  Beat Paul              287 33:47  114 1:10:01 21.3  187 1:43:48   33 41:10  6:38 ,BC             
  119  87/208 M 13/42 M3539  2:25:14  159 Neil McKinnon           249 31:42  155 1:12:27 20.6  193 1:44:09   30 41:05  6:37 Garibaldi Hlnds,
  120  88/208 M 27/50 M3034  2:25:23  324 Darren Kershaw          216 30:08   84 1:08:18 21.8  125 1:38:26  123 46:57  7:33 Calgary,AB      
  121  22/117 F  3/17 F4044  2:25:23    8 Janet Anderson           89 25:33  109 1:09:48 21.4   97 1:35:21  182 50:02  8:03 Vancouver,BC    
  122  23/117 F  5/37 F3034  2:25:53  119 Dawn Kardos             174 28:30   94 1:08:58 21.6  120 1:37:28  147 48:25  7:48 Courtenay,BC    
  123  89/208 M 17/39 M4044  2:26:06   60 Ian Dunn                119 26:41  212 1:16:02 19.6  181 1:42:43   73 43:23  6:59 Richmond,BC     
  124  90/208 M 14/42 M3539  2:26:14  294 Chris Honey             146 27:29  164 1:12:49 20.5  141 1:40:18  108 45:56  7:24 Vancouver,BC    
  125  24/117 F  9/16 F2024  2:26:15  165 Ashleigh Miller         179 28:47  129 1:11:04 21.0  135 1:39:51  116 46:24  7:28 West Vancouver,B
  126  12/32  R  5/8  R-Male 2:26:32  359 of Gas PetroCanada Thr  160 28:04  122 1:10:24 21.2  126 1:38:28  142 48:04  7:44 Brackendale,BC  
  127  25/117 F  3/14 F3539  2:26:36   37 Terri Clapham           147 27:29  158 1:12:39 20.5  138 1:40:08  118 46:28  7:29 Shawnigan Lake,B
  128  91/208 M 28/50 M3034  2:26:47  177 Keith Nicoll            183 28:52  112 1:09:55 21.3  129 1:38:47  139 48:00  7:43 North Vancouver,
  129  92/208 M 15/42 M3539  2:26:55    7 Luis Alonso              40 23:09  241 1:18:30 19.0  171 1:41:39  100 45:16  7:17 Vancouver,BC    
  130  93/208 M  3/3  M1519  2:27:26  281 Ryan Corbett             37 23:04  242 1:18:32 19.0  169 1:41:36  107 45:50  7:23 North Vancouver,
  131  13/32  R  6/14 R-Mix  2:27:28  372  VanTech Blak Dogs      114 26:37   53 1:06:15 22.5   76 1:32:52  257 54:36  8:47 Port Moody,BC   
  132  94/208 M 29/50 M3034  2:27:39  328 Dwight Watson            59 24:06  141 1:11:53 20.7  109 1:35:59  216 51:40  8:19 Garibaldi Hlnds,
  133  26/117 F  5/20 F2529  2:27:41   64 Heather Enns             19 22:17  110 1:09:48 21.4   64 1:32:05  270 55:36  8:57 Vancouver,BC    
  134  27/117 F  1/4  F5054  2:27:52  269 Gwyn Woodson            234 30:59  188 1:13:55 20.2  200 1:44:54   64 42:58  6:55 Victoria,BC     
  135  95/208 M 30/50 M3034  2:27:53  310 Steven Woodside          48 23:44  222 1:17:10 19.3  149 1:40:54  125 46:59  7:34 Vancouver,BC    
  136  96/208 M 16/42 M3539  2:27:59  245 Chris Townsend          223 30:26  177 1:13:22 20.3  188 1:43:48   87 44:11  7:07 Coquitlam,BC    
  137  97/208 M 17/42 M3539  2:28:06  192 Warren Quinn            250 31:45  104 1:09:34 21.4  161 1:41:19  122 46:47  7:32 White rock,BC   
  138  14/32  R  7/14 R-Mix  2:28:10  381  Race for the Case      285 33:40  132 1:11:23 20.9  201 1:45:03   69 43:07  6:56 North Vancouver,
  139  28/117 F  6/20 F2529  2:28:20  140 Kim Leviton             110 26:31  127 1:10:46 21.1  118 1:37:17  206 51:03  8:13 North Vancouver,
  140  98/208 M 18/42 M3539  2:28:25  331 Glenn Stetzl            240 31:14  115 1:10:04 21.3  160 1:41:18  127 47:07  7:35 Squamish,BC     
  141  99/208 M  9/12 M2024  2:28:46  305 Ryan Pogue              188 28:56  147 1:12:04 20.7  152 1:41:00  135 47:46  7:41 Vancouver,BC    
  142 100/208 M  4/17 M4549  2:28:49  270 Ian Woodson             248 31:41  184 1:13:43 20.2  209 1:45:24   74 43:25  6:59 Victoria,BC     
  143  29/117 F  6/37 F3034  2:29:02  267 Marcia Wilson           129 26:56  179 1:13:23 20.3  142 1:40:19  157 48:43  7:50 Kamloops,BC     
  144 101/208 M 18/39 M4044  2:29:12  253 Rod Urquhart            157 27:55  183 1:13:38 20.3  167 1:41:33  131 47:39  7:40 Richmond,BC     
  145  30/117 F  7/20 F2529  2:29:29  196 Alison Rendell          244 31:23  232 1:18:14 19.1  239 1:49:37   16 39:52  6:25 Vancouver,BC    
  146  31/117 F  8/20 F2529  2:29:30  170 Danielle Murphy         155 27:53  208 1:15:36 19.7  186 1:43:29  111 46:01  7:24 Vancouver,BC    
  147  32/117 F  7/37 F3034  2:29:37    5 Adien Aggenbach          63 24:15  210 1:15:49 19.7  137 1:40:04  172 49:33  7:58 Vancouver,BC    
  148 102/208 M  1/6  M5054  2:29:44   70 Jim Farney              105 26:16  178 1:13:22 20.3  133 1:39:38  184 50:06  8:04 Gilbert,AZ      
  149 103/208 M 31/50 M3034  2:29:45   90 Mark Hampton            200 29:20  136 1:11:39 20.8  151 1:40:59  159 48:46  7:51 Coquitlam,BC    
  150  33/117 F  8/37 F3034  2:29:50  291 Elizabeth Hatch         159 28:01  161 1:12:43 20.5  146 1:40:44  166 49:06  7:54 Maple Ridge,BC  
  151  34/117 F  4/14 F3539  2:29:57  286 Evelyn Ehrke             56 24:00  116 1:10:05 21.3   84 1:34:05  275 55:52  8:59 Surrey,BC       
  152 104/208 M 32/50 M3034  2:29:58  150 Reid Martin             153 27:39  185 1:13:43 20.2  165 1:41:22  154 48:36  7:49 Cloverdale,BC   
  153 105/208 M 19/39 M4044  2:29:59  249 Mike Truelove           150 27:35  142 1:11:53 20.7  132 1:39:28  194 50:31  8:08 Squamish,BC     
  154 106/208 M  2/9  M5559  2:30:18  157 Don McIntosh            162 28:05  130 1:11:07 21.0  131 1:39:12  207 51:06  8:13 Port Coquitlam,B
  155 107/208 M 20/39 M4044  2:30:22  208 Brandon Schultz          30 22:57  189 1:14:02 20.1  116 1:36:59  236 53:23  8:35 Squamish,BC     
  156 108/208 M 19/25 M2529  2:30:42  175 Chris Neufeld           251 31:49  101 1:09:21 21.5  157 1:41:10  171 49:32  7:58 Garibaldi Hlnds,
  157 109/208 M  5/17 M4549  2:30:43   92 Bill Harbord            102 26:10   86 1:08:24 21.8   91 1:34:34  277 56:09  9:02 West Vancouver,B
  158  35/117 F  9/37 F3034  2:30:55  287 Heather Feeney          140 27:10  167 1:13:04 20.4  139 1:40:14  197 50:41  8:09 Vancouver,BC    
  159  15/32  R  2/2  R-Corp 2:30:59  351  Carney's Champions      47 23:43  219 1:17:03 19.4  148 1:40:46  189 50:13  8:05 Squamish,BC     
  160  36/117 F 10/37 F3034  2:31:03   99 Marilyn Hellier         191 29:01  145 1:12:01 20.7  155 1:41:02  180 50:01  8:03 Whistler,BC     
  161  16/32  R  2/8  R-Fem  2:31:08  354  Essential Service      237 31:06  123 1:10:31 21.1  170 1:41:37  170 49:31  7:58 Squamish,BC     
  162 110/208 M 33/50 M3034  2:31:19  341 Marty Shatzko           112 26:35  199 1:15:11 19.8  173 1:41:46  173 49:33  7:58 Victoria,BC     
  163 111/208 M 19/42 M3539  2:31:28  292 Jim Helten              168 28:18  138 1:11:43 20.8  136 1:40:01  213 51:27  8:17 West Vancouver,B
  164 112/208 M 20/42 M3539  2:31:37  168 Guy Morum                61 24:09  162 1:12:43 20.5  115 1:36:52  261 54:45  8:49 Squamish,BC     
  165 113/208 M  6/17 M4549  2:31:45  277 Werner Brunke           190 28:57  156 1:12:30 20.6  166 1:41:27  192 50:18  8:06 Langley,BC      
  166 114/208 M 34/50 M3034  2:31:47    6 Bart Alderson           313 35:45  125 1:10:34 21.1  218 1:46:19  104 45:28  7:19 North Vancouver,
  167  17/32  R  6/8  R-Male 2:31:54  357  Mtn FM Team 1          192 29:04  135 1:11:32 20.8  144 1:40:36  209 51:18  8:15 Squamish,BC     
  168 115/208 M  2/6  M5054  2:32:07  209 Richard Scott           173 28:29  223 1:17:11 19.3  214 1:45:40  117 46:27  7:29 Garibaldi Hlnds,
  169  37/117 F 10/16 F2024  2:32:17  231 Teresa Stockley         235 31:00  225 1:17:26 19.3  227 1:48:26   78 43:51  7:03 Squamish,BC     
  170 116/208 M 21/42 M3539  2:32:20  105 Greg Hopps              175 28:30  102 1:09:22 21.5  124 1:37:52  254 54:28  8:46 Delta,BC        
  171  38/117 F  5/14 F3539  2:32:30  115 Laura Jones              91 25:38  146 1:12:03 20.7  121 1:37:41  262 54:49  8:49 North Vancouver,
  172 117/208 M  3/6  M5054  2:32:44  214 Alan Sieben             109 26:29  157 1:12:32 20.6  130 1:39:01  240 53:43  8:39 Vancouver,BC    
  173  39/117 F  4/17 F4044  2:32:52  276 Lorraine Beese          177 28:40  190 1:14:11 20.1  183 1:42:51  181 50:01  8:03 West Vancouver,B
  174 118/208 M 22/42 M3539  2:32:53  243 Chi-Teck Ting           151 27:35  151 1:12:15 20.6  134 1:39:50  233 53:03  8:32 Squamish,BC     
  175 119/208 M 35/50 M3034  2:32:56   23 Sean Bolongaro          213 30:05  197 1:15:08 19.8  206 1:45:13  133 47:43  7:41 Coquitlam,BC    
  176  40/117 F 11/37 F3034  2:33:03  134 Anne-Marie Lavallee     123 26:44  126 1:10:34 21.1  119 1:37:18  274 55:45  8:58 North Vancouver,
  177 120/208 M 23/42 M3539  2:33:18  296 Keith Izatt             266 32:25  168 1:13:06 20.4  210 1:45:31  136 47:47  7:41 Abbotsford,BC   
  178  41/117 F 12/37 F3034  2:33:22  314 Kristine Van Kleef      170 28:25  181 1:13:35 20.3  175 1:42:00  211 51:22  8:16 Delta,BC        
  179 121/208 M  7/17 M4549  2:33:24  171 Dennis Murray           184 28:53  153 1:12:21 20.6  159 1:41:14  219 52:10  8:24 Langley,BC      
  180 122/208 M 21/39 M4044  2:33:26  129 David Ladd              164 28:12  214 1:16:05 19.6  195 1:44:17  167 49:09  7:55 Chandler,AZ     
  181 123/208 M  8/17 M4549  2:33:29  248 Randy Trerise           231 30:55  186 1:13:45 20.2  197 1:44:40  160 48:49  7:51 Grand Forks,BC  
  182  42/117 F  5/17 F4044  2:33:33  321 Vivian Collett          202 29:27  139 1:11:45 20.8  158 1:41:12  223 52:21  8:25 New Westminster,
  183 124/208 M 36/50 M3034  2:33:40  303 Steve Olmstead          257 32:02  121 1:10:19 21.2  177 1:42:21  210 51:19  8:16 North Vancouver,
  184  43/117 F 11/16 F2024  2:33:44  224 Katrina Sovio           209 29:43  172 1:13:09 20.4  185 1:42:52  203 50:52  8:11 Vancouver,BC    
  185  44/117 F  6/14 F3539  2:33:54  228 Cheryl Steele           172 28:27  165 1:12:52 20.5  162 1:41:19  229 52:35  8:28 Vancouver,BC    
  186 125/208 M  1/5  M60+   2:34:17  148 Mick Maguire            281 33:25  152 1:12:20 20.6  215 1:45:45  150 48:32  7:49 North Vancouver,
  187 126/208 M  3/9  M5559  2:34:25   75 Doug Fox                178 28:46  171 1:13:08 20.4  174 1:41:54  226 52:31  8:27 Squamish,BC     
  188 127/208 M 22/39 M4044  2:34:44  250 Brian Tsuji             260 32:13  143 1:11:54 20.7  191 1:44:07  196 50:37  8:09 Vancouver,BC    
  189  18/32  R  7/8  R-Male 2:34:49  380  The Hairy Bald Guys    268 32:37  108 1:09:46 21.4  178 1:42:23  224 52:26  8:26 Squamish,BC     
  190 128/208 M 23/39 M4044  2:34:52  319 Kevin Sweetman          239 31:09  113 1:09:59 21.3  156 1:41:08  242 53:44  8:39 Penticton,BC    
  191 129/208 M 24/42 M3539  2:35:04  288 Greg Flemmer            152 27:38  226 1:17:32 19.2  204 1:45:10  177 49:54  8:02 Delta,BC        
  192 130/208 M  2/5  M60+   2:35:10  215 John Siemens            185 28:53  174 1:13:11 20.4  176 1:42:04  234 53:06  8:33 Comox,BC        
  193  19/32  R  3/8  R-Fem  2:35:11  370  Top Guns               236 31:00  248 1:18:48 18.9  240 1:49:48  103 45:23  7:18 Vancouver,BC    
  194 131/208 M 37/50 M3034  2:35:13   63 Steve Eastman           252 31:50  176 1:13:21 20.3  205 1:45:11  183 50:02  8:03 Vancouver,BC    
  195 132/208 M 38/50 M3034  2:35:18  295 Keith Iwasaki           241 31:15  192 1:14:22 20.1  212 1:45:37  175 49:41  8:00 Vancouver,BC    
  196 133/208 M 25/42 M3539  2:35:19   71 Paul Fenney             201 29:26  209 1:15:43 19.7  202 1:45:09  186 50:10  8:04 North Vancouver,
  197 134/208 M 26/42 M3539  2:35:29  241 Scott Thompson          245 31:31  187 1:13:47 20.2  208 1:45:18  188 50:11  8:05 North Vancouver,
  198 135/208 M 39/50 M3034  2:35:39  247 Sandy Treagus           255 31:56  200 1:15:11 19.8  220 1:47:07  151 48:32  7:49 Whistler,BC     
  199  45/117 F 13/37 F3034  2:35:41  280 Susan Christie          221 30:15  182 1:13:37 20.3  189 1:43:52  217 51:49  8:20 Vancouver,BC    
  200 136/208 M  4/9  M5559  2:35:52   36 John Christie           267 32:33  169 1:13:06 20.4  213 1:45:39  190 50:13  8:05 Vancouver,BC    
  201 137/208 M 10/12 M2024  2:36:01  318 Jason Abrams            217 30:11  195 1:14:58 19.9  203 1:45:09  204 50:52  8:11 Ottawa,ON       
  202  46/117 F 14/37 F3034  2:36:26  139 LuAnne Lee              161 28:04  272 1:20:34 18.5  228 1:48:38  137 47:48  7:42 Vancouver,BC    
  203 138/208 M 40/50 M3034  2:36:35   25 Donovan Brown           275 33:13  237 1:18:22 19.0  256 1:51:35   97 45:00  7:15 Squamish,BC     
  204  47/117 F 15/37 F3034  2:36:56  327 Lorna Bauer             171 28:26  140 1:11:48 20.8  140 1:40:14  282 56:42  9:07 North Vancouver,
  205 139/208 M 24/39 M4044  2:37:45  275 Nigel Barrett           214 30:07  196 1:15:07 19.9  207 1:45:14  227 52:31  8:27 Surrey,BC       
  206  48/117 F  7/14 F3539  2:37:47  116 Shelley Joyce           276 33:15  215 1:16:15 19.6  238 1:49:30  144 48:17  7:46 Kamloops,BC     
  207 140/208 M  4/6  M5054  2:37:56   49 Richard Cudmore         233 30:57  175 1:13:11 20.4  192 1:44:08  244 53:48  8:39 Squamish,BC     
  208 141/208 M 25/39 M4044  2:38:09  201 Will Rogers              79 24:51  230 1:18:00 19.1  184 1:42:51  267 55:18  8:54 Surrey,BC       
  209  49/117 F  1/7  F4549  2:38:10    9 Pamela Atwood           135 27:03  193 1:14:36 20.0  172 1:41:39  281 56:31  9:06 Phoenix,AZ      
  210 142/208 M 26/39 M4044  2:38:11  266 Chris Wilson            156 27:54  160 1:12:42 20.5  145 1:40:36  293 57:35  9:16 North Vancouver,
  211 143/208 M 27/39 M4044  2:38:12   54 Ian Davis               166 28:14  211 1:15:52 19.7  190 1:44:06  246 54:06  8:42 Squamish,BC     
  212  20/32  R  8/14 R-Mix  2:38:24  371  Two and half pints     181 28:49  257 1:19:20 18.8  224 1:48:09  191 50:15  8:05 Vancouver,BC    
  213 144/208 M 41/50 M3034  2:38:26  102 Mark Hewitt             263 32:24  201 1:15:11 19.8  221 1:47:35  202 50:51  8:11 Keewatin,       
  214  50/117 F 12/16 F2024  2:38:34  283 Brooklyn Davis           87 25:27  170 1:13:06 20.4  127 1:38:33  314 60:01  9:40 Surrey,BC       
  215 145/208 M 42/50 M3034  2:38:43  301 Alberto Maturana         75 24:40  231 1:18:02 19.1  180 1:42:42  276 56:01  9:01 Vancouver,BC    
  216  51/117 F  6/17 F4044  2:38:58   88 Vicki Haberl            232 30:55  256 1:19:18 18.8  244 1:50:13  158 48:45  7:51 Garibaldi Hlnds,
  217  52/117 F  9/20 F2529  2:39:31  135 Tracy Lavin             304 35:12  229 1:17:51 19.2  262 1:53:03  119 46:28  7:29 Vancouver,BC    
  218  53/117 F 10/20 F2529  2:39:32  220 Holly Skelton            97 25:53  243 1:18:32 19.0  196 1:44:25  265 55:07  8:52 Vancouver,BC    
  219  54/117 F 16/37 F3034  2:39:38  162 Valerie McTavish        215 30:07  249 1:18:49 18.9  229 1:48:56  198 50:42  8:10 Vancouver,BC    
  220 146/208 M 43/50 M3034  2:39:39   15 Yvon Beaudoin           207 29:38  137 1:11:42 20.8  163 1:41:20  301 58:19  9:23 Burnaby,BC      
  221 147/208 M 20/25 M2529  2:39:58   38 Chris Clibbon           203 29:28  202 1:15:13 19.8  198 1:44:41  266 55:17  8:54 Vancouver,BC    
  222 148/208 M 21/25 M2529  2:39:58   12 Philip Bailey           238 31:07  270 1:20:09 18.6  253 1:51:16  156 48:42  7:50 Vancouver,BC    
  223  21/32  R  8/8  R-Male 2:40:06  377  Kicking Casey's Ass    299 34:43  203 1:15:15 19.8  241 1:49:58  185 50:08  8:04 Vancouver,BC    
  224  55/117 F 11/20 F2529  2:40:13   74 Michelle Foster         279 33:20  213 1:16:04 19.6  237 1:49:24  199 50:49  8:11 North Vancouver,
  225  56/117 F  7/17 F4044  2:40:19   65 Angela Ernst            180 28:48  255 1:19:15 18.8  222 1:48:03  220 52:16  8:25 Delta,BC        
  226  57/117 F  8/17 F4044  2:40:23  273 Amanda Barlow           176 28:39  299 1:24:23 17.7  261 1:53:02  130 47:21  7:37 West Vancouver,B
  227  58/117 F  9/17 F4044  2:40:27   53 Diane Dasler            204 29:28  261 1:19:35 18.7  231 1:49:03  212 51:24  8:16 Delta,BC        
  228  59/117 F 17/37 F3034  2:40:28   82 Teri Glenn              165 28:13  163 1:12:47 20.5  153 1:41:00  309 59:28  9:34 North Vancouver,
  229 149/208 M 28/39 M4044  2:40:42  223 Peter J. Sotola         137 27:04  205 1:15:28 19.8  179 1:42:32  299 58:10  9:22 Surrey,BC       
  230 150/208 M  5/9  M5559  2:41:02  153 Cam McCullough          264 32:24  274 1:20:53 18.4  264 1:53:17  134 47:45  7:41 Whistler,BC     
  231 151/208 M 27/42 M3539  2:41:26  204 Chris Runnals           314 35:48  228 1:17:43 19.2  269 1:53:31  138 47:55  7:43 Garibaldi Hlnds,
  232 152/208 M 44/50 M3034  2:41:27   30 Scott Carr              318 36:04  233 1:18:15 19.1  277 1:54:19  128 47:08  7:35 Cobble Hill,BC  
  233  60/117 F 12/20 F2529  2:41:34  118 Andrea Kardos           198 29:15  148 1:12:05 20.7  164 1:41:20  317 60:14  9:42 Garibaldi Hlnds,
  234  22/32  R  9/14 R-Mix  2:42:40  355  Hughes Law Team        308 35:28  206 1:15:34 19.7  250 1:51:02  215 51:38  8:19 Garibaldi Hlnds,
  235  61/117 F 18/37 F3034  2:42:44  315 Allison Crane           270 32:49  224 1:17:22 19.3  243 1:50:11  228 52:33  8:27 Vancouver,BC    
  236  62/117 F  2/7  F4549  2:42:45   28 Aenea Cameron           338 39:47  227 1:17:39 19.2  300 1:57:26  101 45:19  7:18 Squamish,BC     
  237  63/117 F 19/37 F3034  2:42:52  123 Darcy Knoll             253 31:50  273 1:20:52 18.4  258 1:52:42  187 50:10  8:04 Vancouver,BC    
  238  64/117 F 20/37 F3034  2:43:13   77 Jackie Fulton            95 25:45  283 1:22:24 18.1  225 1:48:09  264 55:04  8:52 Whistler,BC     
  239  65/117 F  8/14 F3539  2:43:44  111 Carmen Jackson          307 35:18  260 1:19:32 18.8  282 1:54:50  164 48:54  7:52 Point Roberts,WA
  240  66/117 F  2/4  F5054  2:44:01   66 Bonny Ervin             211 29:52  259 1:19:30 18.8  235 1:49:22  259 54:39  8:48 Royston,BC      
  241  67/117 F  9/14 F3539  2:44:11  261 Sue Weston              196 29:10  218 1:16:55 19.4  217 1:46:05  298 58:06  9:21 Pitt Meadows,BC 
  242 153/208 M 28/42 M3539  2:44:12  329 Selig Wilansky          134 27:00  258 1:19:29 18.8  219 1:46:29  295 57:43  9:17 Vancouver,BC    
  243  68/117 F 13/20 F2529  2:44:13  304 Kirstie Pirie           142 27:19  294 1:24:05 17.7  255 1:51:24  231 52:49  8:30 Vancouver,BC    
  244 154/208 M 29/39 M4044  2:44:30   44 Rob Collum              107 26:24  133 1:11:25 20.9  123 1:37:49  343 66:41 10:44 Aldergrove,BC   
  245 155/208 M 45/50 M3034  2:44:31  326 Jason Simpson           319 36:11  282 1:22:18 18.1  303 1:58:29  112 46:02  7:25 Whistler,BC     
  246  69/117 F 21/37 F3034  2:44:36   78 Melissa Geddes          210 29:47  271 1:20:22 18.6  242 1:50:09  253 54:27  8:46 Garibaldi Hlnds,
  247  70/117 F  3/4  F5054  2:44:59  264 Helle Wilburn           296 34:31  194 1:14:47 19.9  234 1:49:18  272 55:41  8:58 Squamish,BC     
  248  71/117 F 22/37 F3034  2:45:00  234 Kimberley Styles        230 30:53  262 1:19:36 18.7  246 1:50:29  256 54:31  8:46 Garibaldi Hlnds,
  249  72/117 F 10/14 F3539  2:45:01  254 Yvonne Visser           282 33:26  290 1:23:29 17.9  294 1:56:55  143 48:06  7:44 Nanaimo,BC      
  250  73/117 F 23/37 F3034  2:45:23  114 Leanne Johnson          227 30:39  235 1:18:18 19.0  230 1:48:57  280 56:26  9:05 Vancouver,BC    
  251 156/208 M 29/42 M3539  2:45:29  194 Ian Reade               163 28:06  180 1:13:27 20.3  168 1:41:33  335 63:56 10:17 Delta,BC        
  252  23/32  R  4/8  R-Fem  2:45:38  362  Spirits in the Wind    302 34:50  216 1:16:23 19.5  252 1:51:13  252 54:25  8:45 Squamish,BC     
  253  74/117 F 24/37 F3034  2:45:45  173 Karen Nakagawa          219 30:12  253 1:19:11 18.8  236 1:49:23  279 56:22  9:04 Vancouver,BC    
  254 157/208 M 30/42 M3539  2:45:53   34 Simon Chow              246 31:32  191 1:14:17 20.1  216 1:45:49  315 60:04  9:40 Vancouver,BC    
  255 158/208 M 31/42 M3539  2:46:00   11 Mark Bailey             320 36:12  150 1:12:11 20.7  226 1:48:23  294 57:37  9:16 Surrey,BC       
  256 159/208 M 32/42 M3539  2:46:06   55 Eric Deibert            337 39:28  217 1:16:50 19.4  290 1:56:18  176 49:48  8:01 Surrey,BC       
  257  75/117 F 25/37 F3034  2:46:12  206 Suzanne Salter          194 29:08  303 1:24:45 17.6  274 1:53:53  222 52:19  8:25 West Vancouver,B
  258  76/117 F 14/20 F2529  2:46:12  132 Tanya Lange             256 31:58  221 1:17:08 19.3  232 1:49:06  287 57:06  9:11 Vancouver,BC    
  259  77/117 F 11/14 F3539  2:46:36  110 Sherri Iwaschuk         242 31:16  252 1:19:07 18.8  245 1:50:23  278 56:13  9:03 Vancouver,BC    
  260 160/208 M  9/17 M4549  2:46:37  238 Dan Tatham              229 30:51  310 1:26:25 17.3  299 1:57:16  169 49:21  7:57 West Vancouver,B
  261 161/208 M  5/6  M5054  2:46:43  336 Gottfried Grosser       324 37:13  238 1:18:23 19.0  284 1:55:36  208 51:07  8:14 Abbotsford,BC   
  262 162/208 M 30/39 M4044  2:46:49  144 Peter Loss              195 29:09  297 1:24:08 17.7  265 1:53:17  238 53:32  8:37 Coquitlam,BC    
  263 163/208 M  6/9  M5559  2:46:58   62 Derek Duvall            136 27:03  240 1:18:29 19.0  211 1:45:32  319 61:26  9:53 Surrey,BC       
  264  78/117 F 10/17 F4044  2:47:00  272 Susan Young             298 34:39  251 1:18:50 18.9  268 1:53:29  237 53:31  8:37 North Vancouver,
  265 164/208 M  3/5  M60+   2:47:07   40 Murray Coates           316 35:57  220 1:17:03 19.4  260 1:53:00  247 54:07  8:43 Whistler,BC     
  266 165/208 M 33/42 M3539  2:47:45  128 Lance Kujala            262 32:15  291 1:23:33 17.8  286 1:55:48  218 51:57  8:22 Vancouver,BC    
  267  79/117 F 26/37 F3034  2:47:46  109 Anne Irwin              269 32:45  263 1:19:37 18.7  257 1:52:22  269 55:24  8:55 Burnaby,BC      
  268  24/32  R  5/8  R-Fem  2:47:53  366  The Emancipated Mothe  311 35:33  207 1:15:35 19.7  251 1:51:08  283 56:45  9:08 Garibaldi Hlnds,
  269 166/208 M 10/17 M4549  2:47:56  169 Bob Munro               212 29:59  314 1:27:02 17.1  296 1:57:01  205 50:55  8:12 Delta,BC        
  270 167/208 M 34/42 M3539  2:47:58  189 Timothy Prior           218 30:11  286 1:22:48 18.0  259 1:52:59  263 54:59  8:51 Richmond,BC     
  271  80/117 F 27/37 F3034  2:47:59   19 Tammy Blair             205 29:29  317 1:27:40 17.0  298 1:57:09  201 50:50  8:11 Victoria,BC     
  272 168/208 M  7/9  M5559  2:48:01   67 Paul Ervin              226 30:35  292 1:23:39 17.8  276 1:54:14  243 53:47  8:39 Royston,BC      
  273 169/208 M 35/42 M3539  2:48:08  120 Ted Kennedy             290 34:06  265 1:19:42 18.7  271 1:53:48  251 54:20  8:45 Surrey,BC       
  274 170/208 M 46/50 M3034  2:48:10  337 Jeff Bohnen             332 38:11  267 1:20:02 18.6  302 1:58:13  179 49:57  8:02 Vancouver,BC    
  275 171/208 M 36/42 M3539  2:48:14  323 Don Konantz             288 33:48  204 1:15:20 19.8  233 1:49:08  306 59:06  9:31 West Vancouver,B
  276 172/208 M 11/17 M4549  2:48:25   21 Allan Bohn              317 36:01  239 1:18:25 19.0  278 1:54:26  245 53:59  8:41 Brackendale,BC  
  277  81/117 F 12/14 F3539  2:48:57   56 Lisa DeLusignan         312 35:40  304 1:24:45 17.6  310 2:00:25  152 48:32  7:49 Vancouver,BC    
  278 173/208 M 37/42 M3539  2:49:35  246 Paul Townsend           258 32:03  281 1:21:48 18.2  273 1:53:51  273 55:44  8:58 Coquitlam,BC    
  279 174/208 M 31/39 M4044  2:49:40  217 Dave Simcox             145 27:27  323 1:28:30 16.9  288 1:55:57  241 53:43  8:39 North Vancouver,
  280  25/32  R 10/14 R-Mix  2:49:45  367  The Rookies            295 34:27  277 1:21:37 18.3  289 1:56:04  239 53:41  8:38 ,               
  281  82/117 F 15/20 F2529  2:50:21  167 Monique Moore           283 33:30  324 1:28:49 16.8  315 2:02:19  141 48:02  7:44 Victoria,BC     
  282  83/117 F 28/37 F3034  2:50:24  232 Sandra Stuart           247 31:36  279 1:21:43 18.2  266 1:53:19  286 57:05  9:11 Vancouver,BC    
  283  84/117 F 16/20 F2529  2:50:43  172 Esther Musslick          86 25:26  285 1:22:41 18.0  223 1:48:07  327 62:36 10:04 North Vancouver,
  284 175/208 M  4/5  M60+   2:50:46   94 David Harrison          333 38:11  236 1:18:18 19.0  291 1:56:29  248 54:17  8:44 Vancouver,BC    
  285  85/117 F 29/37 F3034  2:51:16  117 Laurie Kallio           131 26:57  313 1:26:50 17.2  270 1:53:47  292 57:29  9:15 Squamish,BC     
  286 176/208 M 22/25 M2529  2:51:46   16 Jay Bicknell            261 32:14  280 1:21:45 18.2  275 1:53:59  296 57:47  9:18 Garibaldi Hlnds,
  287 177/208 M 12/17 M4549  2:51:59   17 Alex Binz               309 35:32  275 1:21:05 18.4  292 1:56:37  268 55:22  8:55 Vancouver,BC    
  288 178/208 M 38/42 M3539  2:52:03  325 Scott Karsen            310 35:32  234 1:18:17 19.0  272 1:53:49  300 58:14  9:22 Richmond,BC     
  289  86/117 F 11/17 F4044  2:52:04   10 Mona Ayer               280 33:24  264 1:19:40 18.7  263 1:53:04  304 59:00  9:30 Prince George,BC
  290 179/208 M 13/17 M4549  2:52:20   45 Rob Cooper              331 38:07  244 1:18:33 19.0  293 1:56:40  271 55:40  8:58 Vancouver,BC    
  291  87/117 F 30/37 F3034  2:52:27  202 Lorraine Ross           254 31:55  245 1:18:35 19.0  247 1:50:30  324 61:57  9:58 Garibaldi Hlnds,
  292 180/208 M 47/50 M3034  2:52:37  293 Lorne Herlin            278 33:17  307 1:26:05 17.3  308 1:59:22  235 53:15  8:34 Vancouver,BC    
  293 181/208 M 48/50 M3034  2:53:30  164 Jas Michalski           291 34:08  276 1:21:31 18.3  285 1:55:39  297 57:51  9:19 Garibaldi Hlnds,
  294 182/208 M 32/39 M4044  2:54:03  178 Victor O'Connor         329 37:59  288 1:23:06 17.9  312 2:01:05  232 52:58  8:31 Vancouver,BC    
  295  26/32  R  6/8  R-Fem  2:54:25  361  Sidsworth/Shoup/Doyle  323 37:01  250 1:18:49 18.9  287 1:55:50  302 58:35  9:26 Garibaldi Hlnds,
  296  88/117 F 13/14 F3539  2:54:37  156 Tara McGuire            228 30:44  266 1:19:58 18.6  248 1:50:42  334 63:55 10:17 North Vancouver,
  297  89/117 F  1/1  F60+   2:54:48  182 Mae Palm                289 34:05  322 1:28:13 16.9  314 2:02:18  225 52:30  8:27 Squamish,BC     
  298 183/208 M  8/9  M5559  2:56:00   27 Peter Calder            197 29:12  340 1:37:59 15.2  329 2:07:11  161 48:49  7:51 West Vancouver,B
  299  90/117 F 14/14 F3539  2:56:21   52 Sue Dare                347 41:48  295 1:24:06 17.7  327 2:05:54  193 50:27  8:07 Squamish,BC     
  300  91/117 F 13/16 F2024  2:56:42   18 Sally Blair             220 30:13  298 1:24:18 17.7  279 1:54:31  325 62:11 10:00 North Vancouver,
  301  92/117 F  3/7  F4549  2:57:12  160 Lynn McPhillips         265 32:24  301 1:24:42 17.6  297 1:57:06  316 60:06  9:40 Surrey,BC       
  302  93/117 F 17/20 F2529  2:57:13  240 Janet Tecklenborg       143 27:20  289 1:23:27 17.9  249 1:50:47  342 66:26 10:41 Powell River,BC 
  303  94/117 F 31/37 F3034  2:57:35  103 Brandi Higgins          189 28:56  305 1:25:38 17.4  280 1:54:34  333 63:01 10:08 Whistler,BC     
  304 184/208 M 49/50 M3034  2:57:48  126 Jason Krause            336 38:26  268 1:20:07 18.6  304 1:58:33  307 59:15  9:32 Coquitlam,BC    
  305  95/117 F 14/16 F2024  2:58:28   69 Kathryn Fairweather     294 34:24  284 1:22:34 18.1  295 1:56:58  320 61:30  9:54 Vancouver,BC    
  306 185/208 M 39/42 M3539  2:58:33  158 Jim McIntosh            272 33:02  306 1:25:56 17.4  306 1:58:58  312 59:35  9:35 Coquitlam,BC    
  307 186/208 M 14/17 M4549  2:58:36  174 Mike Nelson             341 40:30  247 1:18:47 18.9  307 1:59:17  308 59:19  9:33 Garibaldi Hlnds,
  308  96/117 F 15/16 F2024  2:58:39    4 Jennifer Adolphe        303 35:00  293 1:23:52 17.8  305 1:58:52  313 59:47  9:37 North Vancouver,
  309  27/32  R  7/8  R-Fem  2:59:14  373  YBAC's                 339 40:14  302 1:24:42 17.6  324 2:04:56  249 54:18  8:44 Squamish,BC     
  310 187/208 M  9/9  M5559  2:59:29  298 Michael Koseruba        315 35:55  246 1:18:39 19.0  281 1:54:34  338 64:55 10:27 Vancouver,BC    
  311 188/208 M 33/39 M4044  2:59:54  180 Rob Owen                186 28:54  308 1:26:14 17.3  283 1:55:08  337 64:46 10:25 Langley,BC      
  312  97/117 F 12/17 F4044  3:00:20  191 Lynda Quaife            305 35:14  319 1:27:48 17.0  318 2:03:02  289 57:18  9:13 Brackendale,BC  
  313 189/208 M 15/17 M4549  3:01:51   86 Julian Grzybowski       301 34:46  321 1:28:05 16.9  317 2:02:51  305 59:00  9:30 Garibaldi Hlnds,
  314 190/208 M 34/39 M4044  3:01:59  190 Kim Quaife              273 33:12  269 1:20:07 18.6  267 1:53:19  346 68:40 11:03 Brackendale,BC  
  315  98/117 F 16/16 F2024  3:01:59  289 Elsa Hansen             141 27:12  345 1:43:58 14.3  334 2:11:10  200 50:49  8:11 Vancouver,BC    
  316  99/117 F 32/37 F3034  3:02:40  219 Suneet Singh            328 37:51  318 1:27:46 17.0  326 2:05:37  284 57:03  9:11 Burnaby,BC      
  317  28/32  R 11/14 R-Mix  3:03:01  368  The Rustads            259 32:05  254 1:19:11 18.8  254 1:51:16  348 71:45 11:33 Squamish,BC     
  318 191/208 M 40/42 M3539  3:03:16  332 L Klein                 322 36:28  326 1:29:33 16.7  328 2:06:01  288 57:15  9:13 Squamish,BC     
  319 192/208 M 35/39 M4044  3:03:29   50 Perry Danforth          335 38:13  311 1:26:34 17.2  323 2:04:47  303 58:42  9:27 Vancouver,BC    
  320 193/208 M  5/5  M60+   3:03:38   51 Rob Daniel              344 41:10  287 1:22:57 18.0  321 2:04:07  310 59:31  9:35 Vancouver,BC    
  321  29/32  R 12/14 R-Mix  3:03:39  369  Three Strangers        208 29:40  348 1:47:16 13.9  342 2:16:56  121 46:43  7:31 Garibaldi Hlnds,
  322 194/208 M 50/50 M3034  3:03:48   58 Matt Dion               292 34:10  328 1:30:05 16.6  322 2:04:15  311 59:33  9:35 Vancouver,BC    
  323 100/117 F 33/37 F3034  3:04:18   96 Christine Watson        297 34:34  320 1:28:04 16.9  316 2:02:38  322 61:40  9:55 Garibaldi Hlnds,
  324 195/208 M 16/17 M4549  3:05:07  106 Jonathon Hoskins        300 34:45  309 1:26:16 17.3  311 2:01:01  336 64:06 10:19 Bellingham,WA   
  325 101/117 F 18/20 F2529  3:06:03   35 Janet Christie          187 28:54  335 1:34:35 15.8  319 2:03:29  326 62:34 10:04 Vancouver,BC    
  326 102/117 F 13/17 F4044  3:06:32  317 Pauline Fedder          243 31:20  333 1:32:14 16.2  320 2:03:34  332 62:58 10:08 Vancouver,BC    
  327 196/208 M  6/6  M5054  3:06:45  230 Dan Stiner              346 41:27  334 1:32:33 16.1  338 2:14:00  230 52:45  8:29 Squamish,BC     
  328 103/117 F 34/37 F3034  3:07:09  121 Jacqueline Kerridge     349 42:15  329 1:30:11 16.5  337 2:12:26  260 54:43  8:48 Vancouver,BC    
  329 104/117 F 14/17 F4044  3:07:24   93 Nancy Harper            271 32:56  325 1:29:12 16.7  313 2:02:08  340 65:16 10:30 Vancouver,BC    
  330 105/117 F 35/37 F3034  3:07:28  297 Jill Johnston           330 38:06  332 1:32:01 16.2  333 2:10:07  291 57:21  9:14 North Vancouver,
  331 106/117 F 19/20 F2529  3:07:52   26 Andrea Brynjolfson      293 34:11  330 1:30:47 16.4  325 2:04:58  331 62:54 10:07 Burnaby,BC      
  332 197/208 M 17/17 M4549  3:08:17  244 Aron Tischler           284 33:30  338 1:37:44 15.3  335 2:11:14  285 57:03  9:11 Vancouver,BC    
  333 107/117 F 15/17 F4044  3:08:26  203 Michelle Roy            274 33:12  312 1:26:40 17.2  309 1:59:52  345 68:34 11:02 Surrey,BC       
  334 198/208 M 36/39 M4044  3:09:07  299 Byron Mah               356 47:12  316 1:27:26 17.1  340 2:14:38  255 54:29  8:46 Vancouver,BC    
  335 108/117 F  4/7  F4549  3:09:59  339 Christine Ingemorsen    148 27:29  349 1:47:52 13.8  341 2:15:21  258 54:38  8:48 ,BC             
  336 109/117 F 20/20 F2529  3:10:06  101 Sarah Hentschel         144 27:26  327 1:30:03 16.6  301 1:57:29  349 72:37 11:41 Vancouver,BC    
  337 199/208 M 41/42 M3539  3:12:11   76 Craig Frost             350 43:09  296 1:24:06 17.7  330 2:07:15  339 64:56 10:27 Squamish,BC     
  338 110/117 F 16/17 F4044  3:14:03  211 Cory Shannon            353 44:02  315 1:27:15 17.1  336 2:11:17  329 62:46 10:06 West Vancouver,B
  339  30/32  R 13/14 R-Mix  3:14:06  353  Dames of Diamond Head  321 36:21  350 1:48:45 13.7  348 2:25:06  165 49:00  7:53 Squamish,BC     
  340 111/117 F  5/7  F4549  3:15:44   61 Chris Durnford          326 37:33  331 1:31:56 16.2  331 2:09:29  341 66:15 10:40 Surrey,BC       
  341 200/208 M 37/39 M4044  3:15:54  260 John Weston             348 42:05  342 1:41:32 14.7  347 2:23:37  221 52:17  8:25 Vancouver,BC    
  342 112/117 F 36/37 F3034  3:17:05  184 Lynette Penner          325 37:16  337 1:37:00 15.4  339 2:14:16  330 62:49 10:07 Vancouver,BC    
  343 201/208 M 38/39 M4044  3:18:32  187 Ed Plastino             352 43:29  339 1:37:45 15.3  346 2:21:14  290 57:18  9:13 Langley,BC      
  344 113/117 F  4/4  F5054  3:19:01   24 Danielle Bouchard       343 40:41  336 1:36:49 15.4  343 2:17:30  321 61:31  9:54 Cobble Hill,BC  
  345 114/117 F  6/7  F4549  3:19:49   68 Jan Fairweather         334 38:11  341 1:39:45 15.0  344 2:17:56  323 61:53  9:58 Vancouver,BC    
  346 115/117 F 17/17 F4044  3:22:05  252 Bess Underhill          327 37:38  343 1:41:49 14.6  345 2:19:27  328 62:38 10:05 North Vancouver,
  347  31/32  R  8/8  R-Fem  3:27:49  376  Whistler Wizards       354 44:21  344 1:42:33 14.5  349 2:26:54  318 60:55  9:48 Whistler,BC     
  348 202/208 M 39/39 M4044  3:32:19  343 Rick Wolk               345 41:13  351 1:56:48 12.8  352 2:38:01  250 54:18  8:44 Vancouver,BC    
  349 116/117 F  7/7  F4549  3:36:15   91 Marilyn Hanley          340 40:17  347 1:47:08 13.9  350 2:27:25  347 68:50 11:05 North Vancouver,
  350 203/208 M 23/25 M2529  3:36:18  131 Tim Lang                351 43:26  346 1:45:27 14.1  351 2:28:53  344 67:25 10:51 Vancouver,BC    
  351  32/32  R 14/14 R-Mix  3:40:34  358  Mtn FM Team 2 (The Sw  355 45:03  300 1:24:36 17.6  332 2:09:39  350 90:55 14:38 Squamish,BC     
  352 204/208 M 11/12 M2024           222 Steve Smith             182 28:49   54 1:06:16 22.5   94 1:35:05                  Vancouver,BC    
  353 205/208 M 42/42 M3539           138 Joseph Lee               35 23:02  278 1:21:42 18.3  199 1:44:44                  Vancouver,BC    
  354 206/208 M 12/12 M2024           100 Josh Henderson           23 22:37                                                 Victoria,BC     
  355 207/208 M 24/25 M2529           279 Danilo Caron             46 23:41                                                 Vancouver,BC    
  356 208/208 M 25/25 M2529           212 Cory Sheedy              57 24:02                                                 Vancouver,BC    
  357 117/117 F 37/37 F3034           330 Div Chandna             342 40:35                                                 Vancouver,BC    

return to the Race Headquarters Home Page